createdAt,value
2017-07-23T00:00:19.709Z,-6
2017-07-23T00:01:19.405Z,-6
2017-07-23T00:02:18.498Z,-6
2017-07-23T00:03:17.718Z,-6
2017-07-23T00:04:17.179Z,-6
2017-07-23T00:05:16.374Z,-6
2017-07-23T00:05:46.877Z,-6
2017-07-23T00:06:17.392Z,-6
2017-07-23T00:06:47.925Z,-6
2017-07-23T00:07:18.318Z,-6
2017-07-23T00:07:48.712Z,-6
2017-07-23T00:08:18.981Z,-6
2017-07-23T00:08:49.883Z,-6
2017-07-23T00:10:13.129Z,-6
2017-07-23T00:11:12.715Z,-6
2017-07-23T00:13:11.187Z,-6
2017-07-23T00:14:10.270Z,-6
2017-07-23T00:15:09.976Z,-6
2017-07-23T00:16:09.070Z,-6
2017-07-23T00:17:08.269Z,-6
2017-07-23T00:18:07.743Z,-6
2017-07-23T00:19:07.335Z,-6
2017-07-23T00:19:37.854Z,-6
2017-07-23T00:20:08.367Z,-6
2017-07-23T00:21:05.448Z,-6
2017-07-23T00:22:05.041Z,-6
2017-07-23T00:23:04.244Z,-6
2017-07-23T00:24:03.951Z,-6
2017-07-23T00:25:03.151Z,-6
2017-07-23T00:26:02.497Z,-6
2017-07-23T00:27:01.709Z,-6
2017-07-23T00:28:00.789Z,-6
2017-07-23T00:29:00.405Z,-6
2017-07-23T00:29:59.599Z,-6
2017-07-23T00:30:59.188Z,-6
2017-07-23T00:31:58.149Z,-6
2017-07-23T00:32:57.741Z,-6
2017-07-23T00:33:56.976Z,-6
2017-07-23T00:34:56.062Z,-6
2017-07-23T00:35:55.654Z,-6
2017-07-23T00:36:54.866Z,-6
2017-07-23T00:37:54.086Z,-6
2017-07-23T00:38:24.507Z,-6
2017-07-23T00:38:55.062Z,-6
2017-07-23T00:39:25.347Z,-6
2017-07-23T00:40:52.226Z,-6
2017-07-23T00:41:51.583Z,-6
2017-07-23T00:42:50.800Z,-6
2017-07-23T00:43:50.008Z,-6
2017-07-23T00:44:49.590Z,-6
2017-07-23T00:45:48.789Z,-6
2017-07-23T00:46:47.988Z,-6
2017-07-23T00:47:47.193Z,-6
2017-07-23T00:48:46.901Z,-6
2017-07-23T00:49:17.303Z,-6
2017-07-23T00:49:47.820Z,-6
2017-07-23T00:50:45.517Z,-6
2017-07-23T00:51:44.605Z,-6
2017-07-23T00:52:43.814Z,-6
2017-07-23T00:53:43.528Z,-6
2017-07-23T00:54:14.044Z,-6
2017-07-23T00:54:44.441Z,-6
2017-07-23T00:55:42.134Z,-6
2017-07-23T00:56:41.336Z,-6
2017-07-23T00:57:40.181Z,-6
2017-07-23T00:58:39.777Z,-6
2017-07-23T00:59:39.236Z,-6
2017-07-23T01:00:38.426Z,-6
2017-07-23T01:01:37.499Z,-6
2017-07-23T01:02:37.193Z,-6
2017-07-23T01:03:36.278Z,-6
2017-07-23T01:04:06.658Z,-6
2017-07-23T01:04:37.303Z,-6
2017-07-23T01:05:07.881Z,-6
2017-07-23T01:06:34.267Z,-6
2017-07-23T01:07:33.977Z,-6
2017-07-23T01:08:33.189Z,-6
2017-07-23T01:09:32.389Z,-6
2017-07-23T01:10:31.584Z,-6
2017-07-23T01:11:31.166Z,-6
2017-07-23T01:12:30.365Z,-6
2017-07-23T01:13:29.565Z,-6
2017-07-23T01:14:28.753Z,-6
2017-07-23T01:14:59.265Z,-6
2017-07-23T01:15:29.785Z,-6
2017-07-23T01:16:00.298Z,-6
2017-07-23T01:16:30.695Z,-6
2017-07-23T01:17:01.108Z,-6
2017-07-23T01:17:31.625Z,-6
2017-07-23T01:18:26.310Z,-6
2017-07-23T01:19:25.504Z,-6
2017-07-23T01:20:24.602Z,-6
2017-07-23T01:21:24.189Z,-6
2017-07-23T01:22:23.032Z,-6
2017-07-23T01:23:22.495Z,-6
2017-07-23T01:24:22.205Z,-6
2017-07-23T01:25:21.408Z,-6
2017-07-23T01:26:20.601Z,-6
2017-07-23T01:27:19.803Z,-6
2017-07-23T01:28:19.393Z,-6
2017-07-23T01:29:18.593Z,-6
2017-07-23T01:30:18.176Z,-6
2017-07-23T01:31:17.386Z,-6
2017-07-23T01:32:16.343Z,-6
2017-07-23T01:33:15.810Z,-6
2017-07-23T01:34:15.276Z,-6
2017-07-23T01:34:45.787Z,-6
2017-07-23T01:35:16.308Z,-6
2017-07-23T01:36:13.995Z,-6
2017-07-23T01:37:13.081Z,-6
2017-07-23T01:38:12.293Z,-6
2017-07-23T01:39:11.995Z,-6
2017-07-23T01:40:11.199Z,-6
2017-07-23T01:41:10.393Z,-6
2017-07-23T01:42:09.597Z,-6
2017-07-23T01:43:08.809Z,-6
2017-07-23T01:44:08.388Z,-6
2017-07-23T01:44:38.894Z,-6
2017-07-23T01:45:09.433Z,-6
2017-07-23T01:45:39.940Z,-6
2017-07-23T01:46:10.334Z,-6
2017-07-23T01:46:40.610Z,-6
2017-07-23T01:47:11.127Z,-6
2017-07-23T01:47:41.647Z,-6
2017-07-23T01:49:05.010Z,-6
2017-07-23T01:50:04.214Z,-6
2017-07-23T01:51:03.429Z,-6
2017-07-23T01:52:02.649Z,-6
2017-07-23T01:53:02.357Z,-6
2017-07-23T01:54:01.560Z,-6
2017-07-23T01:55:00.784Z,-6
2017-07-23T01:55:31.309Z,-6
2017-07-23T01:56:01.818Z,-6
2017-07-23T01:56:32.237Z,-6
2017-07-23T01:57:02.747Z,-6
2017-07-23T01:57:33.263Z,-6
2017-07-23T01:58:03.789Z,-6
2017-07-23T01:58:34.289Z,-6
2017-07-23T01:59:57.533Z,-6
2017-07-23T02:00:56.612Z,-6
2017-07-23T02:01:55.695Z,-6
2017-07-23T02:02:55.405Z,-6
2017-07-23T02:03:54.380Z,-6
2017-07-23T02:04:53.851Z,-6
2017-07-23T02:05:53.047Z,-6
2017-07-23T02:06:52.013Z,-6
2017-07-23T02:07:51.721Z,-6
2017-07-23T02:08:50.924Z,-6
2017-07-23T02:09:21.319Z,-6
2017-07-23T02:09:51.833Z,-6
2017-07-23T02:10:49.902Z,-6
2017-07-23T02:11:49.105Z,-6
2017-07-23T02:12:48.306Z,-6
2017-07-23T02:13:47.504Z,-6
2017-07-23T02:14:46.734Z,-6
2017-07-23T02:15:46.443Z,-6
2017-07-23T02:16:16.948Z,-6
2017-07-23T02:16:47.330Z,-6
2017-07-23T02:17:44.896Z,-6
2017-07-23T02:18:44.103Z,-6
2017-07-23T02:19:43.304Z,-6
2017-07-23T02:20:43.006Z,-6
2017-07-23T02:21:42.104Z,-6
2017-07-23T02:22:41.313Z,-6
2017-07-23T02:23:40.797Z,-6
2017-07-23T02:24:40.013Z,-6
2017-07-23T02:25:39.107Z,-6
2017-07-23T02:26:38.808Z,-6
2017-07-23T02:27:09.323Z,-6
2017-07-23T02:27:39.839Z,-6
2017-07-23T02:28:10.229Z,-6
2017-07-23T02:28:40.617Z,-6
2017-07-23T02:29:11.003Z,-6
2017-07-23T02:30:35.872Z,-6
2017-07-23T02:32:34.470Z,-6
2017-07-23T02:33:33.551Z,-6
2017-07-23T02:34:33.253Z,-6
2017-07-23T02:35:32.346Z,-6
2017-07-23T02:36:31.435Z,-6
2017-07-23T02:37:31.149Z,-6
2017-07-23T02:38:01.659Z,-6
2017-07-23T02:38:32.175Z,-6
2017-07-23T02:39:02.686Z,-6
2017-07-23T02:39:32.744Z,-6
2017-07-23T02:40:28.940Z,-6
2017-07-23T02:41:28.045Z,-6
2017-07-23T02:43:27.027Z,-6
2017-07-23T02:44:26.219Z,-6
2017-07-23T02:45:25.415Z,-6
2017-07-23T02:46:24.625Z,-6
2017-07-23T02:47:23.830Z,-6
2017-07-23T02:48:23.528Z,-6
2017-07-23T02:49:22.735Z,-6
2017-07-23T02:50:21.817Z,-6
2017-07-23T02:51:21.026Z,-6
2017-07-23T02:52:20.729Z,-6
2017-07-23T02:53:19.811Z,-6
2017-07-23T02:54:18.908Z,-6
2017-07-23T02:55:18.615Z,-6
2017-07-23T02:56:17.695Z,-6
2017-07-23T02:57:17.272Z,-6
2017-07-23T02:58:16.462Z,-6
2017-07-23T02:59:15.650Z,-6
2017-07-23T03:00:14.603Z,-6
2017-07-23T03:01:14.066Z,-6
2017-07-23T03:02:13.773Z,-6
2017-07-23T03:03:12.847Z,-6
2017-07-23T03:04:12.045Z,-6
2017-07-23T03:04:42.552Z,-6
2017-07-23T03:05:13.077Z,-6
2017-07-23T03:06:10.763Z,-6
2017-07-23T03:07:09.964Z,-6
2017-07-23T03:08:09.182Z,-6
2017-07-23T03:09:08.881Z,-6
2017-07-23T03:10:08.089Z,-6
2017-07-23T03:11:07.183Z,-6
2017-07-23T03:12:06.401Z,-6
2017-07-23T03:13:05.864Z,-6
2017-07-23T03:14:05.439Z,-6
2017-07-23T03:15:04.404Z,-6
2017-07-23T03:16:03.645Z,-6
2017-07-23T03:17:03.243Z,-6
2017-07-23T03:18:02.452Z,-6
2017-07-23T03:19:01.528Z,-6
2017-07-23T03:20:01.241Z,-6
2017-07-23T03:21:00.319Z,-6
2017-07-23T03:21:59.402Z,-6
2017-07-23T03:22:58.882Z,-6
2017-07-23T03:23:58.084Z,-6
2017-07-23T03:24:28.598Z,-6
2017-07-23T03:24:59.116Z,-6
2017-07-23T03:25:56.686Z,-6
2017-07-23T03:26:56.152Z,-6
2017-07-23T03:27:55.228Z,-6
2017-07-23T03:28:54.946Z,-6
2017-07-23T03:29:54.145Z,-6
2017-07-23T03:30:53.369Z,-6
2017-07-23T03:31:52.600Z,-6
2017-07-23T03:32:51.798Z,-6
2017-07-23T03:33:51.504Z,-6
2017-07-23T03:34:21.893Z,-6
2017-07-23T03:34:52.403Z,-6
2017-07-23T03:35:22.910Z,-6
2017-07-23T03:35:53.295Z,-6
2017-07-23T03:36:23.800Z,-6
2017-07-23T03:37:48.670Z,-6
2017-07-23T03:38:47.865Z,-6
2017-07-23T03:39:46.945Z,-6
2017-07-23T03:40:46.136Z,-6
2017-07-23T03:41:45.724Z,-6
2017-07-23T03:42:44.930Z,-6
2017-07-23T03:43:44.131Z,-6
2017-07-23T03:44:43.335Z,-6
2017-07-23T03:45:13.724Z,-6
2017-07-23T03:45:44.126Z,-6
2017-07-23T03:46:14.517Z,-6
2017-07-23T03:46:45.039Z,-6
2017-07-23T03:47:15.441Z,-6
2017-07-23T03:48:40.808Z,-6
2017-07-23T03:49:40.001Z,-6
2017-07-23T03:50:39.470Z,-6
2017-07-23T03:51:38.670Z,-6
2017-07-23T03:52:37.755Z,-6
2017-07-23T03:53:37.345Z,-6
2017-07-23T03:54:36.420Z,-6
2017-07-23T03:55:36.122Z,-6
2017-07-23T03:56:35.210Z,-6
2017-07-23T03:57:34.407Z,-6
2017-07-23T03:58:04.798Z,-6
2017-07-23T03:59:33.066Z,-6
2017-07-23T04:00:32.151Z,-6
2017-07-23T04:01:31.863Z,-6
2017-07-23T04:02:31.071Z,-6
2017-07-23T04:03:30.285Z,-6
2017-07-23T04:04:00.793Z,-6
2017-07-23T04:04:31.309Z,-6
2017-07-23T04:05:01.820Z,-6
2017-07-23T04:05:32.335Z,-6
2017-07-23T04:06:02.969Z,-6
2017-07-23T04:06:33.487Z,-6
2017-07-23T04:07:27.643Z,-6
2017-07-23T04:09:26.243Z,-6
2017-07-23T04:10:25.451Z,-6
2017-07-23T04:11:24.650Z,-6
2017-07-23T04:12:23.857Z,-6
2017-07-23T04:13:23.596Z,-6
2017-07-23T04:14:22.798Z,-6
2017-07-23T04:14:53.083Z,-6
2017-07-23T04:15:23.359Z,-6
2017-07-23T04:15:53.872Z,-6
2017-07-23T04:16:24.396Z,-6
2017-07-23T04:16:54.784Z,-6
2017-07-23T04:17:25.172Z,-6
2017-07-23T04:17:55.591Z,-6
2017-07-23T04:18:26.104Z,-6
2017-07-23T04:18:56.379Z,-6
2017-07-23T04:20:18.608Z,-6
2017-07-23T04:21:17.957Z,-6
2017-07-23T04:22:17.143Z,-6
2017-07-23T04:23:16.342Z,-6
2017-07-23T04:24:15.552Z,-6
2017-07-23T04:25:15.138Z,-6
2017-07-23T04:25:45.714Z,-6
2017-07-23T04:26:16.225Z,-6
2017-07-23T04:26:46.754Z,-6
2017-07-23T04:27:17.149Z,-6
2017-07-23T04:27:47.672Z,-6
2017-07-23T04:28:18.066Z,-6
2017-07-23T04:28:48.583Z,-6
2017-07-23T04:30:11.329Z,-6
2017-07-23T04:31:10.917Z,-6
2017-07-23T04:32:10.385Z,-6
2017-07-23T04:33:09.604Z,-6
2017-07-23T04:34:08.807Z,-6
2017-07-23T04:35:07.886Z,-6
2017-07-23T04:36:07.486Z,-6
2017-07-23T04:37:06.576Z,-6
2017-07-23T04:38:05.772Z,-6
2017-07-23T04:39:05.490Z,-6
2017-07-23T04:40:04.456Z,-6
2017-07-23T04:41:04.164Z,-6
2017-07-23T04:42:03.370Z,-6
2017-07-23T04:43:02.564Z,-6
2017-07-23T04:44:01.759Z,-6
2017-07-23T04:45:00.968Z,-6
2017-07-23T04:46:00.666Z,-6
2017-07-23T04:46:59.880Z,-6
2017-07-23T04:47:59.085Z,-6
2017-07-23T04:48:58.292Z,-6
2017-07-23T04:49:57.994Z,-6
2017-07-23T04:50:57.198Z,-6
2017-07-23T04:51:56.405Z,-6
2017-07-23T04:52:55.612Z,-6
2017-07-23T04:53:54.683Z,-6
2017-07-23T04:54:54.172Z,-6
2017-07-23T04:55:53.379Z,-6
2017-07-23T04:56:53.091Z,-6
2017-07-23T04:57:52.061Z,-6
2017-07-23T04:58:22.571Z,-6
2017-07-23T04:58:52.969Z,-6
2017-07-23T04:59:51.040Z,-6
2017-07-23T05:00:50.249Z,-6
2017-07-23T05:01:49.454Z,-6
2017-07-23T05:02:49.029Z,-6
2017-07-23T05:03:48.109Z,-6
2017-07-23T05:04:47.307Z,-6
2017-07-23T05:05:46.893Z,-6
2017-07-23T05:06:45.982Z,-6
2017-07-23T05:07:45.061Z,-6
2017-07-23T05:08:44.520Z,-6
2017-07-23T05:09:44.101Z,-6
2017-07-23T05:10:43.196Z,-6
2017-07-23T05:11:42.909Z,-6
2017-07-23T05:12:41.994Z,-6
2017-07-23T05:13:41.198Z,-6
2017-07-23T05:14:40.779Z,-6
2017-07-23T05:15:39.863Z,-6
2017-07-23T05:16:39.461Z,-6
2017-07-23T05:17:38.679Z,-6
2017-07-23T05:18:37.876Z,-6
2017-07-23T05:19:37.071Z,-6
2017-07-23T05:20:36.780Z,-6
2017-07-23T05:21:35.980Z,-6
2017-07-23T05:22:35.177Z,-6
2017-07-23T05:23:34.136Z,-6
2017-07-23T05:24:04.925Z,-6
2017-07-23T05:24:35.441Z,-6
2017-07-23T05:25:05.950Z,-6
2017-07-23T05:25:36.543Z,-6
2017-07-23T05:26:07.059Z,-6
2017-07-23T05:26:37.461Z,-6
2017-07-23T05:27:31.620Z,-6
2017-07-23T05:28:31.352Z,-6
2017-07-23T05:29:30.564Z,-6
2017-07-23T05:30:29.769Z,-6
2017-07-23T05:31:28.858Z,-6
2017-07-23T05:32:28.564Z,-6
2017-07-23T05:33:27.640Z,-6
2017-07-23T05:34:27.347Z,-6
2017-07-23T05:34:57.736Z,-6
2017-07-23T05:35:28.267Z,-6
2017-07-23T05:35:58.780Z,-6
2017-07-23T05:36:29.178Z,-6
2017-07-23T05:36:59.690Z,-6
2017-07-23T05:37:30.209Z,-6
2017-07-23T05:38:24.264Z,-6
2017-07-23T05:39:23.994Z,-6
2017-07-23T05:40:23.182Z,-6
2017-07-23T05:41:22.387Z,-6
2017-07-23T05:42:21.965Z,-6
2017-07-23T05:43:21.049Z,-6
2017-07-23T05:44:20.136Z,-6
2017-07-23T05:45:19.363Z,-6
2017-07-23T05:46:18.727Z,-6
2017-07-23T05:47:18.305Z,-6
2017-07-23T05:48:17.505Z,-6
2017-07-23T05:49:17.208Z,-6
2017-07-23T05:50:16.459Z,-6
2017-07-23T05:51:15.659Z,-6
2017-07-23T05:52:14.749Z,-6
2017-07-23T05:53:14.461Z,-6
2017-07-23T05:53:44.982Z,-6
2017-07-23T05:54:15.504Z,-6
2017-07-23T05:54:45.885Z,-6
2017-07-23T05:56:12.266Z,-6
2017-07-23T05:57:11.354Z,-6
2017-07-23T05:58:10.951Z,-6
2017-07-23T05:59:10.161Z,-6
2017-07-23T06:00:09.253Z,-6
2017-07-23T06:01:08.732Z,-6
2017-07-23T06:02:08.445Z,-6
2017-07-23T06:03:07.640Z,-6
2017-07-23T06:03:38.042Z,-6
2017-07-23T06:04:08.551Z,-6
2017-07-23T06:04:39.064Z,-6
2017-07-23T06:05:09.583Z,-6
2017-07-23T06:05:40.100Z,-6
2017-07-23T06:06:10.483Z,-6
2017-07-23T06:06:40.993Z,-6
2017-07-23T06:07:11.513Z,-6
2017-07-23T06:07:42.042Z,-6
2017-07-23T06:08:12.323Z,-6
2017-07-23T06:08:42.718Z,-6
2017-07-23T06:10:03.619Z,-6
2017-07-23T06:11:02.201Z,-6
2017-07-23T06:12:01.419Z,-6
2017-07-23T06:13:00.623Z,-6
2017-07-23T06:14:00.073Z,-6
2017-07-23T06:14:59.019Z,-6
2017-07-23T06:15:58.605Z,-6
2017-07-23T06:16:29.134Z,-6
2017-07-23T06:16:59.647Z,-6
2017-07-23T06:17:30.061Z,-6
2017-07-23T06:18:00.464Z,-6
2017-07-23T06:18:30.749Z,-6
2017-07-23T06:19:56.272Z,-6
2017-07-23T06:20:55.479Z,-6
2017-07-23T06:21:54.553Z,-6
2017-07-23T06:22:54.268Z,-6
2017-07-23T06:23:53.352Z,-6
2017-07-23T06:24:52.941Z,-6
2017-07-23T06:25:52.141Z,-6
2017-07-23T06:26:51.349Z,-6
2017-07-23T06:27:51.059Z,-6
2017-07-23T06:28:50.150Z,-6
2017-07-23T06:29:49.350Z,-6
2017-07-23T06:30:49.051Z,-6
2017-07-23T06:31:48.258Z,-6
2017-07-23T06:32:47.452Z,-6
2017-07-23T06:33:46.533Z,-6
2017-07-23T06:34:46.007Z,-6
2017-07-23T06:35:45.483Z,-6
2017-07-23T06:36:15.996Z,-6
2017-07-23T06:36:46.388Z,-6
2017-07-23T06:37:16.890Z,-6
2017-07-23T06:37:47.302Z,-6
2017-07-23T06:38:43.482Z,-6
2017-07-23T06:39:42.688Z,-6
2017-07-23T06:40:42.383Z,-6
2017-07-23T06:41:41.592Z,-6
2017-07-23T06:42:40.667Z,-6
2017-07-23T06:43:40.376Z,-6
2017-07-23T06:44:39.463Z,-6
2017-07-23T06:45:38.934Z,-6
2017-07-23T06:46:38.136Z,-6
2017-07-23T06:47:08.653Z,-6
2017-07-23T06:47:38.962Z,-6
2017-07-23T06:48:09.472Z,-6
2017-07-23T06:49:36.347Z,-6
2017-07-23T06:50:35.433Z,-6
2017-07-23T06:51:34.650Z,-6
2017-07-23T06:52:34.237Z,-6
2017-07-23T06:53:33.449Z,-6
2017-07-23T06:54:33.037Z,-6
2017-07-23T06:55:32.127Z,-6
2017-07-23T06:56:31.324Z,-6
2017-07-23T06:57:30.905Z,-6
2017-07-23T06:58:01.303Z,-6
2017-07-23T06:58:31.812Z,-6
2017-07-23T06:59:02.341Z,-6
2017-07-23T06:59:32.733Z,-6
2017-07-23T07:00:28.805Z,-6
2017-07-23T07:01:27.990Z,-6
2017-07-23T07:02:27.460Z,-6
2017-07-23T07:03:27.048Z,-6
2017-07-23T07:04:26.241Z,-6
2017-07-23T07:05:25.450Z,-6
2017-07-23T07:06:25.163Z,-6
2017-07-23T07:07:24.359Z,-6
2017-07-23T07:08:23.422Z,-6
2017-07-23T07:09:23.009Z,-6
2017-07-23T07:10:22.206Z,-6
2017-07-23T07:11:21.423Z,-6
2017-07-23T07:12:21.131Z,-6
2017-07-23T07:13:20.339Z,-6
2017-07-23T07:13:50.858Z,-6
2017-07-23T07:14:21.271Z,-6
2017-07-23T07:15:18.965Z,-6
2017-07-23T07:16:18.439Z,-6
2017-07-23T07:17:17.521Z,-6
2017-07-23T07:18:17.221Z,-6
2017-07-23T07:19:16.405Z,-6
2017-07-23T07:20:15.372Z,-6
2017-07-23T07:21:15.066Z,-6
2017-07-23T07:22:14.155Z,-6
2017-07-23T07:23:13.877Z,-6
2017-07-23T07:24:12.957Z,-6
2017-07-23T07:25:12.666Z,-6
2017-07-23T07:26:11.754Z,-6
2017-07-23T07:27:10.844Z,-6
2017-07-23T07:29:09.943Z,-6
2017-07-23T07:30:09.144Z,-6
2017-07-23T07:31:08.344Z,-6
2017-07-23T07:32:08.045Z,-6
2017-07-23T07:33:07.037Z,-6
2017-07-23T07:34:06.627Z,-6
2017-07-23T07:35:06.086Z,-6
2017-07-23T07:36:04.936Z,-6
2017-07-23T07:37:04.518Z,-6
2017-07-23T07:38:03.728Z,-6
2017-07-23T07:39:03.208Z,-6
2017-07-23T07:40:02.403Z,-6
2017-07-23T07:41:02.094Z,-6
2017-07-23T07:42:01.310Z,-6
2017-07-23T07:43:00.785Z,-6
2017-07-23T07:43:31.292Z,-6
2017-07-23T07:44:01.805Z,-6
2017-07-23T07:44:32.193Z,-6
2017-07-23T07:45:02.711Z,-6
2017-07-23T07:45:33.229Z,-6
2017-07-23T07:46:57.962Z,-6
2017-07-23T07:47:57.663Z,-6
2017-07-23T07:48:56.759Z,-6
2017-07-23T07:49:55.960Z,-6
2017-07-23T07:50:56.228Z,-6
2017-07-23T07:51:54.813Z,-6
2017-07-23T07:52:54.015Z,-6
2017-07-23T07:53:24.537Z,-6
2017-07-23T07:53:54.838Z,-6
2017-07-23T07:54:25.345Z,-6
2017-07-23T07:54:55.727Z,-6
2017-07-23T07:55:26.117Z,-6
2017-07-23T07:55:56.631Z,-6
2017-07-23T07:56:27.039Z,-6
2017-07-23T07:56:57.445Z,-6
2017-07-23T07:57:27.943Z,-6
2017-07-23T07:58:50.175Z,-6
2017-07-23T07:59:49.761Z,-6
2017-07-23T08:00:48.957Z,-6
2017-07-23T08:01:48.158Z,-6
2017-07-23T08:02:47.877Z,-6
2017-07-23T08:03:47.078Z,-6
2017-07-23T08:04:46.285Z,-6
2017-07-23T08:05:45.742Z,-6
2017-07-23T08:06:45.322Z,-6
2017-07-23T08:07:15.701Z,-6
2017-07-23T08:07:46.092Z,-6
2017-07-23T08:08:16.601Z,-6
2017-07-23T08:09:43.131Z,-6
2017-07-23T08:10:42.729Z,-6
2017-07-23T08:11:41.940Z,-6
2017-07-23T08:12:41.152Z,-6
2017-07-23T08:13:40.617Z,-6
2017-07-23T08:14:39.713Z,-6
2017-07-23T08:15:39.315Z,-6
2017-07-23T08:16:38.564Z,-6
2017-07-23T08:17:38.157Z,-6
2017-07-23T08:18:37.249Z,-6
2017-07-23T08:19:36.990Z,-6
2017-07-23T08:20:35.948Z,-6
2017-07-23T08:21:35.537Z,-6
2017-07-23T08:22:34.624Z,-6
2017-07-23T08:23:34.209Z,-6
2017-07-23T08:24:33.913Z,-6
2017-07-23T08:25:04.445Z,-6
2017-07-23T08:25:34.958Z,-6
2017-07-23T08:26:05.115Z,-6
2017-07-23T08:26:35.523Z,-6
2017-07-23T08:27:05.945Z,-6
2017-07-23T08:28:31.198Z,-6
2017-07-23T08:29:30.291Z,-6
2017-07-23T08:30:29.882Z,-6
2017-07-23T08:31:28.965Z,-6
2017-07-23T08:32:28.669Z,-6
2017-07-23T08:33:27.873Z,-6
2017-07-23T08:34:27.471Z,-6
2017-07-23T08:35:26.679Z,-6
2017-07-23T08:35:57.210Z,-6
2017-07-23T08:36:27.500Z,-6
2017-07-23T08:36:57.894Z,-6
2017-07-23T08:37:28.290Z,-6
2017-07-23T08:37:58.792Z,-6
2017-07-23T08:39:24.172Z,-6
2017-07-23T08:40:23.369Z,-6
2017-07-23T08:41:22.979Z,-6
2017-07-23T08:42:22.072Z,-6
2017-07-23T08:43:21.656Z,-6
2017-07-23T08:44:21.263Z,-6
2017-07-23T08:45:20.341Z,-6
2017-07-23T08:46:19.416Z,-6
2017-07-23T08:47:18.895Z,-6
2017-07-23T08:48:18.618Z,-6
2017-07-23T08:48:49.170Z,-6
2017-07-23T08:49:19.669Z,-6
2017-07-23T08:50:17.115Z,-6
2017-07-23T08:51:16.835Z,-6
2017-07-23T08:52:16.028Z,-6
2017-07-23T08:53:15.109Z,-6
2017-07-23T08:54:14.689Z,-6
2017-07-23T08:55:13.646Z,-6
2017-07-23T08:56:13.112Z,-6
2017-07-23T08:57:12.710Z,-6
2017-07-23T08:58:12.426Z,-6
2017-07-23T08:59:11.625Z,70.8
2017-07-23T09:00:10.831Z,-6
2017-07-23T09:01:10.295Z,-6
2017-07-23T09:02:09.397Z,-6
2017-07-23T09:03:08.871Z,-6
2017-07-23T09:04:08.347Z,-6
2017-07-23T09:05:07.696Z,-6
2017-07-23T09:06:07.045Z,-6
2017-07-23T09:07:06.740Z,-6
2017-07-23T09:08:05.823Z,-6
2017-07-23T09:09:05.022Z,-6
2017-07-23T09:10:04.747Z,-6
2017-07-23T09:11:03.605Z,-6
2017-07-23T09:12:03.317Z,-6
2017-07-23T09:13:02.910Z,-6
2017-07-23T09:14:01.871Z,-6
2017-07-23T09:15:01.337Z,-6
2017-07-23T09:16:00.914Z,-6
2017-07-23T09:16:59.997Z,-6
2017-07-23T09:17:59.695Z,-6
2017-07-23T09:18:58.893Z,-6
2017-07-23T09:19:58.098Z,-6
2017-07-23T09:20:57.959Z,-6
2017-07-23T09:21:57.159Z,-6
2017-07-23T09:22:56.362Z,-6
2017-07-23T09:23:55.570Z,-6
2017-07-23T09:25:54.670Z,-6
2017-07-23T09:26:53.875Z,-6
2017-07-23T09:27:53.093Z,-6
2017-07-23T09:28:52.742Z,-6
2017-07-23T09:29:51.958Z,-6
2017-07-23T09:30:51.443Z,-6
2017-07-23T09:31:50.646Z,-6
2017-07-23T09:32:50.220Z,-6
2017-07-23T09:33:49.290Z,-6
2017-07-23T09:34:19.815Z,-6
2017-07-23T09:34:50.324Z,-6
2017-07-23T09:35:20.603Z,-6
2017-07-23T09:36:47.888Z,-6
2017-07-23T09:37:47.099Z,-6
2017-07-23T09:38:46.178Z,-6
2017-07-23T09:39:45.757Z,-6
2017-07-23T09:40:45.235Z,-6
2017-07-23T09:41:44.214Z,-6
2017-07-23T09:42:43.806Z,-6
2017-07-23T09:43:43.402Z,-6
2017-07-23T09:44:13.921Z,-6
2017-07-23T09:44:44.192Z,-6
2017-07-23T09:45:14.584Z,-6
2017-07-23T09:45:44.978Z,-6
2017-07-23T09:46:15.369Z,-6
2017-07-23T09:46:45.880Z,-6
2017-07-23T09:47:16.277Z,-6
2017-07-23T09:48:40.022Z,-6
2017-07-23T09:49:39.608Z,-6
2017-07-23T09:50:38.801Z,-6
2017-07-23T09:51:38.272Z,-6
2017-07-23T09:52:37.860Z,-6
2017-07-23T09:53:37.064Z,-6
2017-07-23T09:54:36.760Z,-6
2017-07-23T09:55:35.961Z,-6
2017-07-23T09:56:35.047Z,-6
2017-07-23T09:57:34.648Z,-6
2017-07-23T09:58:05.150Z,-6
2017-07-23T09:58:35.668Z,-6
2017-07-23T09:59:33.243Z,-6
2017-07-23T10:00:32.944Z,-6
2017-07-23T10:01:31.916Z,-6
2017-07-23T10:02:31.619Z,-6
2017-07-23T10:03:31.214Z,-6
2017-07-23T10:04:01.380Z,-6
2017-07-23T10:04:31.894Z,-6
2017-07-23T10:05:02.405Z,-6
2017-07-23T10:05:32.918Z,-6
2017-07-23T10:06:03.311Z,-6
2017-07-23T10:06:33.815Z,-6
2017-07-23T10:07:28.874Z,-6
2017-07-23T10:08:28.072Z,-6
2017-07-23T10:09:27.778Z,-6
2017-07-23T10:10:26.983Z,-6
2017-07-23T10:11:26.575Z,-6
2017-07-23T10:12:25.651Z,-6
2017-07-23T10:13:25.349Z,-6
2017-07-23T10:14:24.539Z,-6
2017-07-23T10:14:55.059Z,-6
2017-07-23T10:15:25.564Z,-6
2017-07-23T10:15:56.065Z,-6
2017-07-23T10:16:26.585Z,-6
2017-07-23T10:16:57.110Z,-6
2017-07-23T10:17:27.611Z,-6
2017-07-23T10:17:58.121Z,-6
2017-07-23T10:18:28.621Z,-6
2017-07-23T10:18:59.139Z,-6
2017-07-23T10:20:20.978Z,-6
2017-07-23T10:21:20.687Z,-6
2017-07-23T10:22:19.898Z,-6
2017-07-23T10:23:19.245Z,-6
2017-07-23T10:24:18.441Z,-6
2017-07-23T10:25:18.156Z,-6
2017-07-23T10:26:17.362Z,-6
2017-07-23T10:26:47.743Z,-6
2017-07-23T10:27:18.267Z,-6
2017-07-23T10:27:48.801Z,-6
2017-07-23T10:28:19.305Z,-6
2017-07-23T10:28:49.693Z,-6
2017-07-23T10:30:14.940Z,-6
2017-07-23T10:31:14.659Z,-6
2017-07-23T10:32:13.731Z,-6
2017-07-23T10:33:13.475Z,-6
2017-07-23T10:34:12.558Z,-6
2017-07-23T10:35:12.268Z,-6
2017-07-23T10:36:11.106Z,-6
2017-07-23T10:37:11.085Z,-6
2017-07-23T10:38:10.297Z,-6
2017-07-23T10:39:09.640Z,53
2017-07-23T10:40:09.219Z,-6
2017-07-23T10:41:08.307Z,-6
2017-07-23T10:42:08.013Z,-6
2017-07-23T10:43:07.617Z,-6
2017-07-23T10:44:06.817Z,-6
2017-07-23T10:45:06.535Z,-6
2017-07-23T10:46:05.755Z,-6
2017-07-23T10:47:04.825Z,-6
2017-07-23T10:47:35.325Z,-6
2017-07-23T10:48:05.719Z,-6
2017-07-23T10:49:03.794Z,-6
2017-07-23T10:50:03.515Z,-6
2017-07-23T10:51:02.604Z,-6
2017-07-23T10:52:02.209Z,-6
2017-07-23T10:53:01.568Z,-6
2017-07-23T10:54:01.030Z,-6
2017-07-23T10:55:00.625Z,-6
2017-07-23T10:55:59.601Z,-6
2017-07-23T10:56:59.207Z,-6
2017-07-23T10:57:58.910Z,-6
2017-07-23T10:58:57.873Z,-6
2017-07-23T10:59:57.590Z,-6
2017-07-23T11:00:56.670Z,-6
2017-07-23T11:01:56.254Z,-6
2017-07-23T11:02:55.721Z,-6
2017-07-23T11:03:55.196Z,-6
2017-07-23T11:04:54.801Z,-6
2017-07-23T11:05:54.384Z,-6
2017-07-23T11:06:53.583Z,-6
2017-07-23T11:07:52.777Z,-6
2017-07-23T11:08:52.349Z,-6
2017-07-23T11:09:52.048Z,-6
2017-07-23T11:10:51.124Z,-6
2017-07-23T11:11:50.850Z,-6
2017-07-23T11:12:50.052Z,-6
2017-07-23T11:13:49.756Z,-6
2017-07-23T11:14:48.955Z,-6
2017-07-23T11:15:48.663Z,-6
2017-07-23T11:16:47.875Z,-6
2017-07-23T11:17:47.335Z,-6
2017-07-23T11:18:46.907Z,45.9
2017-07-23T11:19:46.118Z,44.3
2017-07-23T11:20:45.318Z,45.7
2017-07-23T11:21:44.660Z,45.6
2017-07-23T11:22:44.371Z,46.4
2017-07-23T11:23:44.088Z,46.1
2017-07-23T11:24:43.198Z,45.7
2017-07-23T11:25:13.708Z,45.7
2017-07-23T11:25:44.218Z,45.7
2017-07-23T11:26:14.744Z,45.7
2017-07-23T11:27:41.519Z,44.9
2017-07-23T11:28:40.993Z,44.7
2017-07-23T11:29:40.460Z,46.9
2017-07-23T11:30:39.768Z,45.2
2017-07-23T11:31:39.355Z,45.1
2017-07-23T11:32:38.561Z,44.1
2017-07-23T11:33:38.150Z,44.4
2017-07-23T11:34:37.736Z,44.6
2017-07-23T11:35:36.702Z,44.4
2017-07-23T11:36:36.414Z,44.7
2017-07-23T11:37:36.009Z,45.1
2017-07-23T11:38:35.594Z,45.1
2017-07-23T11:39:34.795Z,43.9
2017-07-23T11:40:34.509Z,42.7
2017-07-23T11:41:33.594Z,42.5
2017-07-23T11:42:33.186Z,42.5
2017-07-23T11:43:32.786Z,43.7
2017-07-23T11:44:32.005Z,43.7
2017-07-23T11:45:31.722Z,43.2
2017-07-23T11:46:31.182Z,42.6
2017-07-23T11:47:30.377Z,41.1
2017-07-23T11:48:30.076Z,42.4
2017-07-23T11:49:29.288Z,43
2017-07-23T11:50:28.989Z,43.9
2017-07-23T11:51:28.181Z,44
2017-07-23T11:52:27.896Z,45.4
2017-07-23T11:53:27.120Z,45
2017-07-23T11:54:26.205Z,47.3
2017-07-23T11:55:25.915Z,45.8
2017-07-23T11:55:56.294Z,45.8
2017-07-23T11:56:26.685Z,46.4
2017-07-23T11:56:57.204Z,46.4
2017-07-23T11:58:24.368Z,44.3
2017-07-23T11:59:23.575Z,44.3
2017-07-23T12:00:23.165Z,44.8
2017-07-23T12:01:22.879Z,44.1
2017-07-23T12:02:21.965Z,44.1
2017-07-23T12:03:21.550Z,45.4
2017-07-23T12:04:21.020Z,44.3
2017-07-23T12:05:20.488Z,45.2
2017-07-23T12:06:19.566Z,43.3
2017-07-23T12:07:19.154Z,45
2017-07-23T12:08:18.858Z,44.9
2017-07-23T12:09:17.934Z,45.5
2017-07-23T12:10:17.519Z,44.9
2017-07-23T12:11:17.215Z,43.5
2017-07-23T12:12:16.295Z,43.9
2017-07-23T12:13:15.885Z,44.7
2017-07-23T12:14:14.990Z,44.7
2017-07-23T12:15:15.076Z,44.6
2017-07-23T12:16:14.542Z,44.8
2017-07-23T12:17:13.900Z,45.1
2017-07-23T12:18:13.481Z,44
2017-07-23T12:18:43.645Z,44
2017-07-23T12:19:14.162Z,44.4
2017-07-23T12:19:44.669Z,44.4
2017-07-23T12:21:11.554Z,44.1
2017-07-23T12:22:11.020Z,44.5
2017-07-23T12:23:10.620Z,44.3
2017-07-23T12:24:10.234Z,44.5
2017-07-23T12:25:09.205Z,45.6
2017-07-23T12:26:08.798Z,44.4
2017-07-23T12:27:08.506Z,44.4
2017-07-23T12:28:07.703Z,43.9
2017-07-23T12:29:07.425Z,44.8
2017-07-23T12:30:06.620Z,45.3
2017-07-23T12:31:05.869Z,45.5
2017-07-23T12:32:05.568Z,45.1
2017-07-23T12:33:05.274Z,44.7
2017-07-23T12:34:04.500Z,45.4
2017-07-23T12:35:03.617Z,44
2017-07-23T12:36:03.340Z,44.6
2017-07-23T12:36:33.852Z,44.6